createdAt,value
2019-04-30T00:00:03.583Z,99.90
2019-04-30T00:02:39.873Z,99.90
2019-04-30T00:05:09.943Z,99.90
2019-04-30T00:07:38.210Z,99.90
2019-04-30T00:10:07.845Z,99.90
2019-04-30T00:12:39.488Z,99.90
2019-04-30T00:15:10.884Z,99.90
2019-04-30T00:17:39.629Z,99.90
2019-04-30T00:20:09.325Z,99.90
2019-04-30T00:22:46.162Z,99.90
2019-04-30T00:25:09.666Z,99.90
2019-04-30T00:27:39.102Z,99.90
2019-04-30T00:30:09.071Z,99.90
2019-04-30T00:32:43.397Z,99.90
2019-04-30T00:35:11.855Z,99.90
2019-04-30T00:37:42.451Z,99.90
2019-04-30T00:40:11.850Z,99.90
2019-04-30T00:42:41.236Z,99.90
2019-04-30T00:45:12.072Z,99.90
2019-04-30T00:47:44.510Z,99.90
2019-04-30T00:50:14.852Z,99.90
2019-04-30T00:52:45.689Z,99.90
2019-04-30T00:55:15.239Z,99.90
2019-04-30T00:57:47.389Z,99.90
2019-04-30T01:00:25.079Z,99.90
2019-04-30T01:03:07.869Z,99.90
2019-04-30T01:05:35.335Z,99.90
2019-04-30T01:08:07.014Z,99.90
2019-04-30T01:10:36.283Z,99.90
2019-04-30T01:13:08.087Z,99.90
2019-04-30T01:15:38.963Z,99.90
2019-04-30T01:18:09.319Z,99.90
2019-04-30T01:20:40.619Z,99.90
2019-04-30T01:23:11.288Z,99.90
2019-04-30T01:25:43.268Z,99.90
2019-04-30T01:28:16.266Z,99.90
2019-04-30T01:30:43.468Z,99.90
2019-04-30T01:33:13.182Z,99.90
2019-04-30T01:35:42.569Z,99.90
2019-04-30T01:38:12.811Z,99.90
2019-04-30T01:40:47.493Z,99.90
2019-04-30T01:43:14.502Z,99.90
2019-04-30T01:45:43.870Z,99.90
2019-04-30T01:48:13.289Z,99.90
2019-04-30T01:50:42.672Z,99.90
2019-04-30T01:53:13.356Z,99.90
2019-04-30T01:56:01.786Z,99.90
2019-04-30T01:58:46.923Z,99.90
2019-04-30T02:01:21.007Z,99.90
2019-04-30T02:03:50.368Z,99.90
2019-04-30T02:06:19.827Z,99.90
2019-04-30T02:08:49.419Z,99.90
2019-04-30T02:11:19.087Z,99.90
2019-04-30T02:13:49.173Z,99.90
2019-04-30T02:16:21.017Z,99.90
2019-04-30T02:18:49.714Z,99.90
2019-04-30T02:21:19.509Z,99.90
2019-04-30T02:23:49.440Z,99.90
2019-04-30T02:26:18.886Z,99.90
2019-04-30T02:28:49.519Z,99.90
2019-04-30T02:31:22.369Z,99.90
2019-04-30T02:33:52.292Z,99.90
2019-04-30T02:36:30.727Z,99.90
2019-04-30T02:39:02.767Z,99.90
2019-04-30T02:41:31.536Z,99.90
2019-04-30T02:44:03.164Z,99.90
2019-04-30T02:46:32.848Z,99.90
2019-04-30T02:49:03.259Z,99.90
2019-04-30T02:51:35.115Z,99.90
2019-04-30T02:54:26.581Z,99.90
2019-04-30T02:57:05.571Z,99.90
2019-04-30T02:59:36.549Z,99.90
2019-04-30T03:02:05.942Z,99.90
2019-04-30T03:04:35.367Z,99.90
2019-04-30T03:07:04.946Z,99.90
2019-04-30T03:09:34.415Z,99.90
2019-04-30T03:12:03.932Z,99.90
2019-04-30T03:14:33.349Z,99.90
2019-04-30T03:17:11.233Z,99.90
2019-04-30T03:20:03.105Z,99.90
2019-04-30T03:22:30.709Z,99.90
2019-04-30T03:25:00.060Z,99.90
2019-04-30T03:27:30.185Z,99.90
2019-04-30T03:30:00.218Z,99.90
2019-04-30T03:32:31.606Z,99.90
2019-04-30T03:35:03.113Z,99.90
2019-04-30T03:37:33.039Z,99.90
2019-04-30T03:40:02.440Z,99.90
2019-04-30T03:42:31.766Z,99.90
2019-04-30T03:45:01.186Z,99.90
2019-04-30T03:47:30.525Z,99.90
2019-04-30T03:50:00.337Z,99.90
2019-04-30T03:52:29.662Z,99.90
2019-04-30T03:55:02.776Z,99.90
2019-04-30T03:57:30.728Z,99.90
2019-04-30T04:00:00.157Z,99.90
2019-04-30T04:02:50.189Z,99.90
2019-04-30T04:05:31.602Z,99.90
2019-04-30T04:08:19.565Z,99.90
2019-04-30T04:10:53.200Z,99.90
2019-04-30T04:13:22.769Z,99.90
2019-04-30T04:15:52.207Z,99.90
2019-04-30T04:18:21.660Z,99.90
2019-04-30T04:21:07.038Z,99.90
2019-04-30T04:23:22.128Z,99.90
2019-04-30T04:25:51.556Z,99.90
2019-04-30T04:28:20.842Z,99.90
2019-04-30T04:30:50.877Z,99.90
2019-04-30T04:33:20.264Z,99.90
2019-04-30T04:35:50.081Z,99.90
2019-04-30T04:38:20.480Z,99.90
2019-04-30T04:40:50.375Z,99.90
2019-04-30T04:43:20.292Z,99.90
2019-04-30T04:45:50.220Z,99.90
2019-04-30T04:48:23.034Z,99.90
2019-04-30T04:50:50.708Z,99.90
2019-04-30T04:53:20.230Z,99.90
2019-04-30T04:55:50.089Z,99.90
2019-04-30T04:58:21.596Z,99.90
2019-04-30T05:00:50.701Z,99.90
2019-04-30T05:03:34.775Z,99.90
2019-04-30T05:06:04.143Z,99.90
2019-04-30T05:08:33.629Z,99.90
2019-04-30T05:11:03.456Z,99.90
2019-04-30T05:13:34.774Z,99.90
2019-04-30T05:16:04.291Z,99.90
2019-04-30T05:18:33.676Z,99.90
2019-04-30T05:21:03.130Z,99.90
2019-04-30T05:23:32.401Z,99.90
2019-04-30T05:26:01.859Z,99.90
2019-04-30T05:28:31.227Z,99.90
2019-04-30T05:31:00.676Z,99.90
2019-04-30T05:33:29.992Z,99.90
2019-04-30T05:35:59.532Z,99.90
2019-04-30T05:38:31.224Z,99.90
2019-04-30T05:41:00.107Z,99.90
2019-04-30T05:43:29.446Z,99.90
2019-04-30T05:45:58.875Z,99.90
2019-04-30T05:48:28.766Z,99.90
2019-04-30T05:50:59.160Z,99.90
2019-04-30T05:53:28.856Z,99.90
2019-04-30T05:55:59.330Z,99.90
2019-04-30T05:58:29.979Z,99.90
2019-04-30T06:00:59.806Z,99.90
2019-04-30T06:03:32.978Z,99.90
2019-04-30T06:06:00.208Z,99.90
2019-04-30T06:08:36.904Z,99.90
2019-04-30T06:11:16.002Z,99.90
2019-04-30T06:14:03.061Z,99.90
2019-04-30T06:16:32.463Z,99.90
2019-04-30T06:19:02.006Z,99.90
2019-04-30T06:21:31.416Z,99.90
2019-04-30T06:24:00.867Z,99.90
2019-04-30T06:26:30.322Z,99.90
2019-04-30T06:29:00.156Z,99.90
2019-04-30T06:31:34.673Z,99.90
2019-04-30T06:34:00.760Z,99.90
2019-04-30T06:36:30.464Z,99.90
2019-04-30T06:38:59.709Z,99.90
2019-04-30T06:41:29.644Z,99.90
2019-04-30T06:43:59.431Z,99.90
2019-04-30T06:46:28.731Z,99.90
2019-04-30T06:49:00.082Z,99.90
2019-04-30T06:51:30.771Z,99.90
2019-04-30T06:54:00.151Z,99.90
2019-04-30T06:56:29.513Z,99.90
2019-04-30T06:58:59.085Z,99.90
2019-04-30T07:01:29.052Z,99.90
2019-04-30T07:04:00.783Z,99.90
2019-04-30T07:06:32.795Z,99.90
2019-04-30T07:09:19.619Z,99.90
2019-04-30T07:11:59.271Z,99.90
2019-04-30T07:14:29.241Z,99.90
2019-04-30T07:16:59.431Z,99.90
2019-04-30T07:19:38.153Z,99.90
2019-04-30T07:22:01.542Z,99.90
2019-04-30T07:24:33.192Z,99.90
2019-04-30T07:27:02.880Z,99.80
2019-04-30T07:29:32.746Z,99.90
2019-04-30T07:32:03.555Z,99.90
2019-04-30T07:34:36.901Z,99.70
2019-04-30T07:37:14.503Z,99.80
2019-04-30T07:39:34.911Z,99.90
2019-04-30T07:42:04.339Z,99.80
2019-04-30T07:44:36.584Z,99.50
2019-04-30T07:47:04.525Z,99.50
2019-04-30T07:49:47.009Z,99.60
2019-04-30T07:52:05.601Z,99.40
2019-04-30T07:54:35.121Z,99.50
2019-04-30T07:57:04.431Z,99.30
2019-04-30T07:59:33.678Z,99.10
2019-04-30T08:02:10.018Z,99.00
2019-04-30T08:04:51.412Z,99.10
2019-04-30T08:07:20.820Z,99.00
2019-04-30T08:09:50.153Z,98.90
2019-04-30T08:12:28.171Z,98.60
2019-04-30T08:14:50.545Z,98.40
2019-04-30T08:17:19.856Z,98.30
2019-04-30T08:19:49.152Z,98.10
2019-04-30T08:22:19.653Z,98.30
2019-04-30T08:24:49.272Z,98.30
2019-04-30T08:27:19.670Z,98.20
2019-04-30T08:29:50.007Z,98.20
2019-04-30T08:32:19.469Z,98.00
2019-04-30T08:34:50.093Z,98.10
2019-04-30T08:37:20.241Z,98.00
2019-04-30T08:39:49.867Z,98.00
2019-04-30T08:42:30.932Z,98.30
2019-04-30T08:44:50.429Z,98.50
2019-04-30T08:47:21.220Z,98.30
2019-04-30T08:49:50.852Z,98.20
2019-04-30T08:52:20.499Z,97.50
2019-04-30T08:54:49.929Z,97.30
2019-04-30T08:57:19.492Z,96.90
2019-04-30T08:59:49.484Z,97.00
2019-04-30T09:02:19.721Z,96.80
2019-04-30T09:04:52.477Z,96.50
2019-04-30T09:07:21.809Z,96.10
2019-04-30T09:09:51.157Z,95.80
2019-04-30T09:12:20.491Z,96.50
2019-04-30T09:14:49.764Z,95.80
2019-04-30T09:17:19.963Z,95.30
2019-04-30T09:19:49.446Z,95.10
2019-04-30T09:22:19.470Z,95.00
2019-04-30T09:24:49.718Z,95.50
2019-04-30T09:27:19.743Z,95.20
2019-04-30T09:29:49.366Z,95.10
2019-04-30T09:32:19.408Z,94.70
2019-04-30T09:34:48.965Z,94.70
2019-04-30T09:37:18.828Z,95.10
2019-04-30T09:39:49.416Z,94.90
2019-04-30T09:42:20.359Z,94.40
2019-04-30T09:44:49.853Z,95.70
2019-04-30T09:47:20.112Z,94.70
2019-04-30T09:49:49.780Z,95.10
2019-04-30T09:52:19.933Z,95.10
2019-04-30T09:54:50.399Z,95.20
2019-04-30T09:57:20.301Z,95.10
2019-04-30T09:59:49.732Z,94.80
2019-04-30T10:02:19.346Z,94.80
2019-04-30T10:04:49.203Z,94.70
2019-04-30T10:07:19.556Z,94.70
2019-04-30T10:09:50.901Z,94.90
2019-04-30T10:12:19.992Z,95.10
2019-04-30T10:14:49.657Z,95.20
2019-04-30T10:17:38.114Z,95.50
2019-04-30T10:20:10.973Z,95.50
2019-04-30T10:22:40.355Z,95.40
2019-04-30T10:25:10.261Z,94.90
2019-04-30T10:27:39.641Z,94.90
2019-04-30T10:30:11.022Z,94.70
2019-04-30T10:32:40.386Z,95.30
2019-04-30T10:35:09.809Z,95.30
2019-04-30T10:37:39.476Z,95.90
2019-04-30T10:40:10.350Z,95.60
2019-04-30T10:42:39.834Z,95.20
2019-04-30T10:45:09.954Z,95.20
2019-04-30T10:47:39.503Z,95.00
2019-04-30T10:50:09.914Z,95.00
2019-04-30T10:52:39.589Z,95.00
2019-04-30T10:55:09.374Z,94.90
2019-04-30T10:57:39.645Z,94.10
2019-04-30T11:00:12.937Z,94.40
2019-04-30T11:02:42.332Z,94.10
2019-04-30T11:05:12.353Z,94.30
2019-04-30T11:07:41.840Z,94.50
2019-04-30T11:10:11.360Z,94.30
2019-04-30T11:12:40.728Z,93.80
2019-04-30T11:15:10.831Z,93.40
2019-04-30T11:17:40.343Z,93.90
2019-04-30T11:20:10.455Z,94.20
2019-04-30T11:22:41.341Z,93.80
2019-04-30T11:25:11.211Z,93.50
2019-04-30T11:27:41.686Z,92.90
2019-04-30T11:30:20.715Z,93.10
2019-04-30T11:32:43.219Z,94.00
2019-04-30T11:35:13.691Z,94.60
2019-04-30T11:37:43.018Z,95.60
2019-04-30T11:40:13.162Z,95.70
2019-04-30T11:42:42.569Z,95.50
2019-04-30T11:45:14.123Z,96.00
2019-04-30T11:47:53.000Z,96.70
2019-04-30T11:50:15.300Z,97.00
2019-04-30T11:52:44.722Z,96.70
2019-04-30T11:55:14.985Z,96.60
2019-04-30T11:57:44.278Z,96.60
2019-04-30T12:00:20.666Z,96.60
2019-04-30T12:02:52.888Z,96.40
2019-04-30T12:05:21.191Z,96.40
2019-04-30T12:08:09.549Z,95.60
2019-04-30T12:10:58.182Z,95.20
2019-04-30T12:13:32.419Z,95.20
2019-04-30T12:16:02.427Z,95.70
2019-04-30T12:18:31.828Z,95.80
2019-04-30T12:21:01.261Z,95.30
2019-04-30T12:23:30.650Z,95.80
2019-04-30T12:26:02.697Z,95.60
2019-04-30T12:28:31.030Z,95.00
2019-04-30T12:31:00.309Z,94.90
2019-04-30T12:33:29.708Z,94.40
2019-04-30T12:35:59.642Z,93.70
2019-04-30T12:38:29.905Z,94.50
2019-04-30T12:40:59.346Z,94.80
2019-04-30T12:43:29.321Z,92.80
2019-04-30T12:46:03.508Z,93.40
2019-04-30T12:48:39.693Z,93.10
2019-04-30T12:51:19.307Z,91.50
2019-04-30T12:53:55.572Z,90.10
2019-04-30T12:56:31.014Z,89.60
2019-04-30T12:59:00.421Z,87.20
2019-04-30T13:01:33.901Z,78.60
2019-04-30T13:04:01.499Z,75.90
2019-04-30T13:06:31.421Z,76.60
2019-04-30T13:09:01.623Z,79.90
2019-04-30T13:11:32.169Z,83.00
2019-04-30T13:14:02.260Z,86.70
2019-04-30T13:16:31.935Z,86.90
2019-04-30T13:19:01.324Z,85.40
2019-04-30T13:21:30.734Z,85.70
2019-04-30T13:24:00.124Z,84.80
2019-04-30T13:26:29.518Z,83.60
2019-04-30T13:29:03.559Z,82.90
2019-04-30T13:31:33.153Z,79.00
2019-04-30T13:34:26.278Z,74.90
2019-04-30T13:36:55.571Z,74.60
2019-04-30T13:39:29.887Z,73.90
2019-04-30T13:42:17.950Z,72.40
2019-04-30T13:44:45.589Z,73.60
2019-04-30T13:47:14.969Z,77.30
2019-04-30T13:49:44.307Z,79.60
2019-04-30T13:52:13.584Z,83.00
2019-04-30T13:54:43.042Z,85.40
2019-04-30T13:57:12.459Z,88.30
2019-04-30T13:59:42.003Z,89.00
2019-04-30T14:02:11.705Z,90.60
2019-04-30T14:04:58.827Z,90.40
2019-04-30T14:07:45.668Z,90.30
2019-04-30T14:10:15.324Z,90.20
2019-04-30T14:12:50.661Z,90.20
2019-04-30T14:15:20.268Z,90.10
2019-04-30T14:17:49.882Z,90.10
2019-04-30T14:20:19.443Z,90.60
2019-04-30T14:22:48.871Z,90.80
2019-04-30T14:25:18.602Z,90.80
2019-04-30T14:27:51.774Z,90.90
2019-04-30T14:30:19.302Z,91.90
2019-04-30T14:32:50.659Z,92.60
2019-04-30T14:35:20.050Z,93.00
2019-04-30T14:37:49.702Z,92.50
2019-04-30T14:40:20.296Z,91.70
2019-04-30T14:42:59.875Z,91.00
2019-04-30T14:45:36.094Z,89.90
2019-04-30T14:48:15.264Z,84.40
2019-04-30T14:50:44.885Z,80.20
2019-04-30T14:53:36.031Z,78.80
2019-04-30T14:56:23.788Z,79.10
2019-04-30T14:59:12.119Z,78.70
2019-04-30T15:01:59.141Z,78.90
2019-04-30T15:04:29.049Z,80.00
2019-04-30T15:06:58.867Z,82.20
2019-04-30T15:09:28.242Z,84.20
2019-04-30T15:11:58.632Z,85.70
2019-04-30T15:14:28.147Z,84.90
2019-04-30T15:16:57.602Z,85.10
2019-04-30T15:19:26.975Z,85.10
2019-04-30T15:21:56.376Z,84.40
2019-04-30T15:24:29.907Z,83.30
2019-04-30T15:26:59.210Z,85.90
2019-04-30T15:29:29.135Z,86.60
2019-04-30T15:31:59.233Z,90.10
2019-04-30T15:34:29.395Z,91.30
2019-04-30T15:36:59.561Z,91.90
2019-04-30T15:39:48.871Z,91.70
2019-04-30T15:42:19.970Z,91.00
2019-04-30T15:44:49.760Z,89.20
2019-04-30T15:47:19.600Z,86.60
2019-04-30T15:49:49.003Z,86.40
2019-04-30T15:52:18.913Z,86.70
2019-04-30T15:54:49.079Z,87.80
2019-04-30T15:57:19.972Z,87.10
2019-04-30T15:59:49.910Z,86.20
2019-04-30T16:02:23.900Z,86.70
2019-04-30T16:05:20.995Z,84.70
2019-04-30T16:07:58.728Z,83.00
2019-04-30T16:10:56.264Z,81.10
2019-04-30T16:13:30.535Z,80.80
2019-04-30T16:15:59.970Z,83.40
2019-04-30T16:18:35.874Z,85.70
2019-04-30T16:21:05.184Z,85.40
2019-04-30T16:23:34.594Z,84.80
2019-04-30T16:26:03.887Z,80.60
2019-04-30T16:28:33.158Z,77.50
2019-04-30T16:31:02.563Z,78.90
2019-04-30T16:33:31.915Z,81.20
2019-04-30T16:36:01.238Z,83.10
2019-04-30T16:38:30.691Z,83.60
2019-04-30T16:41:00.034Z,85.10
2019-04-30T16:43:29.883Z,86.10
2019-04-30T16:45:59.250Z,86.40
2019-04-30T16:48:29.102Z,85.70
2019-04-30T16:50:58.726Z,85.30
2019-04-30T16:53:28.006Z,84.80
2019-04-30T16:55:58.616Z,86.90
2019-04-30T16:58:29.549Z,90.00
2019-04-30T17:00:59.383Z,90.60
2019-04-30T17:03:35.694Z,90.50
2019-04-30T17:06:14.026Z,90.50
2019-04-30T17:08:52.185Z,88.60
2019-04-30T17:11:39.168Z,87.90
2019-04-30T17:14:11.612Z,86.90
2019-04-30T17:16:41.022Z,87.50
2019-04-30T17:19:10.295Z,86.60
2019-04-30T17:21:39.669Z,84.90
2019-04-30T17:24:08.945Z,83.70
2019-04-30T17:26:39.242Z,84.70
2019-04-30T17:29:09.632Z,85.60
2019-04-30T17:31:39.051Z,84.60
2019-04-30T17:34:09.294Z,84.90
2019-04-30T17:36:39.661Z,84.40
2019-04-30T17:39:12.553Z,81.60
2019-04-30T17:41:41.894Z,81.30
2019-04-30T17:44:11.206Z,81.20
2019-04-30T17:46:40.549Z,81.20
2019-04-30T17:49:10.161Z,84.00
2019-04-30T17:51:39.407Z,84.00
2019-04-30T17:54:15.513Z,84.60
2019-04-30T17:56:46.025Z,85.80
2019-04-30T17:59:15.363Z,84.30
2019-04-30T18:01:49.933Z,83.50
2019-04-30T18:04:22.009Z,85.00
2019-04-30T18:06:50.612Z,85.60
2019-04-30T18:09:21.127Z,87.70
2019-04-30T18:11:50.524Z,89.30
2019-04-30T18:14:20.147Z,90.70
2019-04-30T18:16:49.467Z,91.60
2019-04-30T18:19:25.960Z,92.40
2019-04-30T18:22:01.962Z,93.10
2019-04-30T18:24:43.674Z,94.20
2019-04-30T18:27:24.904Z,95.40
2019-04-30T18:29:54.339Z,96.30
2019-04-30T18:32:25.429Z,96.90
2019-04-30T18:34:54.862Z,97.50
2019-04-30T18:37:24.248Z,98.00
2019-04-30T18:39:53.673Z,98.50
2019-04-30T18:42:23.055Z,98.70
2019-04-30T18:44:52.435Z,99.00
2019-04-30T18:47:21.799Z,99.40
2019-04-30T18:49:51.140Z,99.60
2019-04-30T18:52:20.536Z,99.90
2019-04-30T18:54:49.843Z,99.90
2019-04-30T18:57:19.243Z,99.90
2019-04-30T18:59:48.591Z,99.90
2019-04-30T19:02:18.213Z,99.90
2019-04-30T19:04:49.488Z,99.90
2019-04-30T19:07:30.070Z,99.90
2019-04-30T19:10:09.063Z,99.90
2019-04-30T19:12:48.924Z,99.90
2019-04-30T19:16:11.332Z,99.90
2019-04-30T19:18:37.539Z,99.90
2019-04-30T19:21:08.935Z,99.90
2019-04-30T19:23:39.050Z,99.90
2019-04-30T19:26:08.506Z,99.90
2019-04-30T19:28:38.698Z,99.90
2019-04-30T19:31:09.126Z,99.90
2019-04-30T19:33:39.356Z,99.90
2019-04-30T19:36:09.854Z,99.90
2019-04-30T19:38:39.134Z,99.90
2019-04-30T19:41:10.471Z,99.90
2019-04-30T19:43:40.157Z,99.90
2019-04-30T19:46:09.579Z,99.90
2019-04-30T19:48:38.996Z,99.90
2019-04-30T19:51:08.838Z,99.90
2019-04-30T19:53:39.516Z,99.90
2019-04-30T19:56:08.973Z,99.90
2019-04-30T19:58:54.409Z,99.90
2019-04-30T20:01:09.556Z,99.90
2019-04-30T20:03:40.747Z,99.90
2019-04-30T20:06:10.459Z,99.90
2019-04-30T20:08:39.769Z,99.90
2019-04-30T20:11:09.047Z,99.90
2019-04-30T20:13:40.309Z,99.90
2019-04-30T20:16:09.721Z,99.90
2019-04-30T20:18:39.156Z,99.90
2019-04-30T20:21:12.367Z,99.90
2019-04-30T20:23:41.630Z,99.90
2019-04-30T20:26:10.989Z,99.90
2019-04-30T20:28:42.508Z,99.90
2019-04-30T20:31:11.697Z,99.90
2019-04-30T20:33:41.100Z,99.90
2019-04-30T20:36:10.588Z,99.90
2019-04-30T20:38:44.664Z,99.90
2019-04-30T20:41:14.738Z,99.90
2019-04-30T20:43:44.167Z,99.90
2019-04-30T20:46:13.531Z,99.90
2019-04-30T20:48:42.889Z,99.90
2019-04-30T20:51:12.226Z,99.90
2019-04-30T20:53:41.555Z,99.90
2019-04-30T20:56:10.896Z,99.90
2019-04-30T20:58:54.594Z,99.90
2019-04-30T21:01:11.190Z,99.90
2019-04-30T21:03:40.563Z,99.90
2019-04-30T21:06:10.048Z,99.90
2019-04-30T21:08:39.318Z,99.90
2019-04-30T21:11:09.446Z,99.90
2019-04-30T21:13:39.209Z,99.90
2019-04-30T21:16:08.570Z,99.90
2019-04-30T21:18:39.166Z,99.90
2019-04-30T21:21:08.661Z,99.90
2019-04-30T21:23:39.219Z,99.90
2019-04-30T21:26:08.647Z,99.90
2019-04-30T21:28:39.299Z,99.90
2019-04-30T21:31:26.207Z,99.90
2019-04-30T21:34:00.586Z,99.90
2019-04-30T21:36:29.967Z,99.90
2019-04-30T21:38:59.330Z,99.90
2019-04-30T21:41:29.668Z,99.90
2019-04-30T21:43:59.126Z,99.90
2019-04-30T21:46:29.279Z,99.90
2019-04-30T21:48:58.849Z,99.90
2019-04-30T21:51:28.119Z,99.90
2019-04-30T21:53:57.872Z,99.90
2019-04-30T21:56:27.206Z,99.90
2019-04-30T21:58:56.510Z,99.90
2019-04-30T22:01:26.493Z,99.90
2019-04-30T22:03:55.977Z,99.90
2019-04-30T22:06:25.234Z,99.90
2019-04-30T22:08:54.569Z,99.90
2019-04-30T22:11:24.052Z,99.90
2019-04-30T22:13:53.309Z,99.90
2019-04-30T22:16:22.675Z,99.90
2019-04-30T22:18:51.982Z,99.90
2019-04-30T22:21:21.261Z,99.90
2019-04-30T22:23:50.520Z,99.90
2019-04-30T22:26:19.873Z,99.90
2019-04-30T22:28:49.569Z,99.90
2019-04-30T22:31:19.774Z,99.90
2019-04-30T22:33:49.139Z,99.90
2019-04-30T22:36:32.113Z,99.90
2019-04-30T22:39:30.019Z,99.90
2019-04-30T22:42:39.860Z,99.90
2019-04-30T22:45:24.549Z,99.90
2019-04-30T22:47:53.824Z,99.90
2019-04-30T22:50:23.153Z,99.90
2019-04-30T22:52:52.462Z,99.90
2019-04-30T22:55:21.725Z,99.90
2019-04-30T22:57:50.924Z,99.90
2019-04-30T23:00:31.310Z,99.90
2019-04-30T23:03:03.718Z,99.90
2019-04-30T23:05:32.969Z,99.90
2019-04-30T23:08:02.247Z,99.90
2019-04-30T23:10:31.667Z,99.90
2019-04-30T23:13:00.980Z,99.90
2019-04-30T23:15:30.303Z,99.90
2019-04-30T23:17:59.567Z,99.90
2019-04-30T23:20:28.837Z,99.90
2019-04-30T23:22:58.010Z,99.90
2019-04-30T23:25:27.265Z,99.90
2019-04-30T23:27:56.525Z,99.90
2019-04-30T23:30:25.827Z,99.90
2019-04-30T23:32:55.088Z,99.90
2019-04-30T23:35:24.405Z,99.90
2019-04-30T23:37:53.659Z,99.90
2019-04-30T23:40:27.970Z,99.90
2019-04-30T23:42:57.251Z,99.90
2019-04-30T23:45:26.569Z,99.90
2019-04-30T23:47:56.030Z,99.90
2019-04-30T23:50:25.296Z,99.90
2019-04-30T23:52:54.464Z,99.90
2019-04-30T23:55:23.794Z,99.90
2019-04-30T23:57:52.962Z,99.90
